createdAt,value
2018-08-12T00:04:01.243Z,5.9
2018-08-12T00:09:01.271Z,6.0
2018-08-12T00:19:01.316Z,6.2
2018-08-12T00:24:01.215Z,6.2
2018-08-12T00:29:01.312Z,6.5
2018-08-12T00:34:01.222Z,6.6
2018-08-12T00:39:01.248Z,6.9
2018-08-12T00:44:01.208Z,7.1
2018-08-12T00:49:01.233Z,7.3
2018-08-12T00:54:01.206Z,7.2
2018-08-12T00:59:01.329Z,7.3
2018-08-12T01:04:01.216Z,7.4
2018-08-12T01:09:01.246Z,7.0
2018-08-12T01:14:01.208Z,6.6
2018-08-12T01:19:01.372Z,6.4
2018-08-12T01:24:01.224Z,6.0
2018-08-12T01:29:01.307Z,5.7
2018-08-12T01:39:01.414Z,6.1
2018-08-12T01:44:01.277Z,6.5
2018-08-12T01:49:01.387Z,7.0
2018-08-12T01:54:01.243Z,7.4
2018-08-12T01:59:01.363Z,8.0
2018-08-12T02:04:01.240Z,7.9
2018-08-12T02:09:01.309Z,7.6
2018-08-12T02:14:01.303Z,7.2
2018-08-12T02:19:01.288Z,6.8
2018-08-12T02:24:01.248Z,6.2
2018-08-12T02:29:01.373Z,6.3
2018-08-12T02:34:01.246Z,6.2
2018-08-12T02:44:01.385Z,6.3
2018-08-12T02:49:01.249Z,6.4
2018-08-12T02:54:01.218Z,6.2
2018-08-12T03:04:01.344Z,6.4
2018-08-12T03:20:01.305Z,6.7
2018-08-12T03:25:01.234Z,6.9
2018-08-12T03:30:01.887Z,6.6
2018-08-12T03:35:01.213Z,6.8
2018-08-12T03:40:01.315Z,7.0
2018-08-12T03:45:01.221Z,6.7
2018-08-12T03:50:01.449Z,6.6
2018-08-12T03:55:01.247Z,6.9
2018-08-12T04:00:01.289Z,7.1
2018-08-12T04:05:01.224Z,7.0
2018-08-12T04:10:01.296Z,7.2
2018-08-12T04:15:01.218Z,7.2
2018-08-12T04:20:01.372Z,7.4
2018-08-12T04:30:01.307Z,7.1
2018-08-12T04:35:01.233Z,7.2
2018-08-12T04:40:01.311Z,7.1
2018-08-12T04:45:01.214Z,6.7
2018-08-12T04:50:01.316Z,6.4
2018-08-12T04:55:01.177Z,6.6
2018-08-12T05:00:01.365Z,6.7
2018-08-12T05:05:01.207Z,6.6
2018-08-12T05:10:01.305Z,6.4
2018-08-12T05:15:01.255Z,6.8
2018-08-12T05:20:01.314Z,6.2
2018-08-12T05:25:01.250Z,6.1
2018-08-12T05:30:01.378Z,6.0
2018-08-12T05:35:01.245Z,6.6
2018-08-12T05:40:01.331Z,6.4
2018-08-12T05:45:01.206Z,6.5
2018-08-12T05:50:01.414Z,6.7
2018-08-12T06:00:01.272Z,6.5
2018-08-12T06:05:01.265Z,6.4
2018-08-12T06:10:01.360Z,6.4
2018-08-12T06:15:01.246Z,6.3
2018-08-12T06:20:01.324Z,6.7
2018-08-12T06:25:01.225Z,6.8
2018-08-12T06:30:01.311Z,7.3
2018-08-12T06:35:01.288Z,7.8
2018-08-12T06:40:01.379Z,8.2
2018-08-12T06:45:01.275Z,8.2
2018-08-12T06:50:01.339Z,8.5
2018-08-12T06:55:01.269Z,8.3
2018-08-12T07:00:01.312Z,8.0
2018-08-12T07:05:01.248Z,7.7
2018-08-12T07:10:01.277Z,7.6
2018-08-12T07:15:01.259Z,7.3
2018-08-12T07:20:01.344Z,7.4
2018-08-12T07:30:01.312Z,7.0
2018-08-12T07:35:01.275Z,7.0
2018-08-12T07:40:01.254Z,6.9
2018-08-12T07:45:01.238Z,7.0
2018-08-12T08:00:01.343Z,7.2
2018-08-12T08:05:01.285Z,7.2
2018-08-12T08:15:01.357Z,7.0
2018-08-12T08:25:01.304Z,7.2
2018-08-12T08:30:01.368Z,7.8
2018-08-12T08:35:01.217Z,8.0
2018-08-12T08:45:01.378Z,8.7
2018-08-12T08:50:01.550Z,9.2
2018-08-12T09:00:01.304Z,9.4
2018-08-12T09:05:01.246Z,9.2
2018-08-12T09:10:01.376Z,8.9
2018-08-12T09:15:01.217Z,8.2
2018-08-12T09:20:01.320Z,7.5
2018-08-12T09:25:01.203Z,7.1
2018-08-12T09:30:01.304Z,7.1
2018-08-12T09:35:01.237Z,7.6
2018-08-12T09:40:01.339Z,7.6
2018-08-12T09:45:01.237Z,7.4
2018-08-12T09:50:01.333Z,7.2
2018-08-12T10:00:01.311Z,6.9
2018-08-12T10:05:01.219Z,7.3
2018-08-12T10:10:01.248Z,7.4
2018-08-12T10:15:01.229Z,7.8
2018-08-12T10:21:01.369Z,8.5
2018-08-12T10:31:01.307Z,8.8
2018-08-12T10:36:01.250Z,9.7
2018-08-12T10:41:01.316Z,9.3
2018-08-12T10:46:01.219Z,9.0
2018-08-12T10:51:01.246Z,8.3
2018-08-12T10:56:01.244Z,8.1
2018-08-12T11:01:01.377Z,7.6
2018-08-12T11:06:01.249Z,7.8
2018-08-12T11:11:01.341Z,7.8
2018-08-12T11:16:01.285Z,7.7
2018-08-12T11:22:01.302Z,7.1
2018-08-12T11:27:01.236Z,7.0
2018-08-12T11:32:01.370Z,6.6
2018-08-12T11:37:01.243Z,6.0
2018-08-12T11:42:01.311Z,6.0
2018-08-12T11:47:01.244Z,5.8
2018-08-12T11:52:01.315Z,5.4
2018-08-12T11:57:01.516Z,5.2
2018-08-12T12:02:01.413Z,5.4
2018-08-12T12:07:01.205Z,5.6
2018-08-12T12:17:01.265Z,5.6
2018-08-12T12:22:01.308Z,5.8
2018-08-12T12:27:01.243Z,5.9
2018-08-12T12:32:01.307Z,5.8
2018-08-12T12:37:01.245Z,6.4
2018-08-12T12:42:01.376Z,7.4
2018-08-12T12:47:01.216Z,8.5
2018-08-12T12:52:01.317Z,10.3
2018-08-12T12:57:01.205Z,13.5
2018-08-12T13:02:01.305Z,17.1
2018-08-12T13:07:01.233Z,20.7
2018-08-12T13:12:01.244Z,24.4
2018-08-12T13:17:01.248Z,25.6
2018-08-12T13:22:01.344Z,26.0
2018-08-12T13:27:01.285Z,26.2
2018-08-12T13:32:01.311Z,25.4
2018-08-12T13:37:01.215Z,24.0
2018-08-12T13:42:01.310Z,23.5
2018-08-12T13:47:01.219Z,23.1
2018-08-12T13:52:01.385Z,22.2
2018-08-12T13:57:01.251Z,22.2
2018-08-12T14:02:01.371Z,22.2
2018-08-12T14:07:01.362Z,23.8
2018-08-12T14:12:01.303Z,24.5
2018-08-12T14:17:01.248Z,25.5
2018-08-12T14:22:01.316Z,26.7
2018-08-12T14:27:01.253Z,28.2
2018-08-12T14:32:01.375Z,28.8
2018-08-12T14:37:01.253Z,30.2
2018-08-12T14:42:01.309Z,31.4
2018-08-12T14:47:01.262Z,31.3
2018-08-12T14:57:01.234Z,31.0
2018-08-12T15:02:01.268Z,30.8
2018-08-12T15:07:01.332Z,30.4
2018-08-12T15:12:01.367Z,31.1
2018-08-12T15:17:01.207Z,31.6
2018-08-12T15:22:01.303Z,32.1
2018-08-12T15:27:01.246Z,32.2
2018-08-12T15:32:01.302Z,33.0
2018-08-12T15:37:01.247Z,33.2
2018-08-12T15:42:01.374Z,32.5
2018-08-12T15:47:01.244Z,33.2
2018-08-12T15:57:01.452Z,32.6
2018-08-12T16:02:01.310Z,31.8
2018-08-12T16:07:01.217Z,32.4
2018-08-12T16:12:01.315Z,31.8
2018-08-12T16:17:01.264Z,32.2
2018-08-12T16:22:01.350Z,32.0
2018-08-12T16:32:06.382Z,31.8
2018-08-12T16:37:01.209Z,31.8
2018-08-12T16:47:01.311Z,32.0
2018-08-12T16:52:01.378Z,32.7
2018-08-12T17:02:01.317Z,33.0
2018-08-12T17:07:01.221Z,32.8
2018-08-12T17:12:01.313Z,32.8
2018-08-12T17:17:01.244Z,32.6
2018-08-12T17:22:01.386Z,32.6
2018-08-12T17:27:01.179Z,32.3
2018-08-12T17:37:01.397Z,31.9
2018-08-12T17:42:01.309Z,32.1
2018-08-12T17:47:01.220Z,32.2
2018-08-12T17:52:01.338Z,32.6
2018-08-12T17:57:01.214Z,32.6
2018-08-12T18:02:01.218Z,32.4
2018-08-12T18:07:01.247Z,31.1
2018-08-12T18:12:01.376Z,30.5
2018-08-12T18:17:06.221Z,29.4
2018-08-12T18:27:01.708Z,29.1
2018-08-12T18:32:01.307Z,30.0
2018-08-12T18:37:01.218Z,30.0
2018-08-12T18:42:01.380Z,30.9
2018-08-12T18:47:06.263Z,30.9
2018-08-12T18:52:06.323Z,30.1
2018-08-12T18:57:06.258Z,28.9
2018-08-12T19:02:01.289Z,28.6
2018-08-12T19:07:01.212Z,27.2
2018-08-12T19:12:01.299Z,26.5
2018-08-12T19:17:01.210Z,25.6
2018-08-12T19:22:01.365Z,25.0
2018-08-12T19:27:01.241Z,24.1
2018-08-12T19:32:01.304Z,24.4
2018-08-12T19:37:01.220Z,24.4
2018-08-12T19:42:01.310Z,24.6
2018-08-12T19:47:01.218Z,24.4
2018-08-12T19:52:01.251Z,24.2
2018-08-12T19:57:01.217Z,23.3
2018-08-12T20:02:01.372Z,22.6
2018-08-12T20:07:01.224Z,22.1
2018-08-12T20:12:01.595Z,22.4
2018-08-12T20:22:01.299Z,22.5
2018-08-12T20:27:01.240Z,22.9
2018-08-12T20:32:01.365Z,23.5
2018-08-12T20:37:01.208Z,23.8
2018-08-12T20:42:01.238Z,24.6
2018-08-12T20:47:01.237Z,25.0
2018-08-12T20:52:01.387Z,26.2
2018-08-12T20:57:01.245Z,26.2
2018-08-12T21:02:01.375Z,25.2
2018-08-12T21:07:01.252Z,24.5
2018-08-12T21:12:01.862Z,24.8
2018-08-12T21:17:01.216Z,24.3
2018-08-12T21:22:01.313Z,24.8
2018-08-12T21:27:01.185Z,26.2
2018-08-12T21:32:01.310Z,26.4
2018-08-12T21:37:01.270Z,26.9
2018-08-12T21:42:01.281Z,26.7
2018-08-12T21:47:01.283Z,26.7
2018-08-12T21:52:01.314Z,27.4
2018-08-12T21:57:01.265Z,27.6
2018-08-12T22:02:01.302Z,27.5
2018-08-12T22:07:01.210Z,27.5
2018-08-12T22:12:01.234Z,28.1
2018-08-12T22:17:01.259Z,27.4
2018-08-12T22:22:01.244Z,28.4
2018-08-12T22:27:01.214Z,28.7
2018-08-12T22:32:01.220Z,29.0
2018-08-12T22:37:01.230Z,29.0
2018-08-12T22:42:01.261Z,29.3
2018-08-12T22:47:01.202Z,29.5
2018-08-12T22:52:01.235Z,30.0
2018-08-12T22:57:01.231Z,29.8
2018-08-12T23:02:01.237Z,29.4
2018-08-12T23:07:01.247Z,29.7
2018-08-12T23:12:01.239Z,29.1
2018-08-12T23:17:01.286Z,28.4
2018-08-12T23:22:01.281Z,28.8
2018-08-12T23:27:01.284Z,29.1
2018-08-12T23:32:01.290Z,29.5
2018-08-12T23:37:01.287Z,29.9
2018-08-12T23:42:01.277Z,30.2
2018-08-12T23:52:01.237Z,30.0
2018-08-12T23:57:01.212Z,29.6
